< < Back
Terminal Aerodrome Forecast


Current Version              Previous Versions:   1  2  3  4  5  6  7  8  9  

Terminal Aerodrome Forecast

484
FTUS42 KCAE 252050 AAA
TAFCAE
TAF AMD
KCAE 252050Z 2521/2618 18007KT P6SM SCT060 SCT150
     FM260200 VRB04KT P6SM FEW150
     FM261500 22005KT P6SM SCT060=

Latest METAR

639
SAUS80 KWBC 260200 CCA
MTRCAE
METAR KCAE 260156Z 18007KT 10SM CLR 31/22 A3002 RMK AO2 SLP162
T03060217


USA.gov is the U.S. government's official web portal to all federal, state and local government web resources and services.